createdAt,value
2017-11-29T00:01:59.681Z,6.02
2017-11-29T00:04:27.075Z,6.00
2017-11-29T00:06:54.479Z,6.03
2017-11-29T00:09:21.871Z,6.05
2017-11-29T00:11:49.272Z,6.06
2017-11-29T00:14:16.654Z,6.04
2017-11-29T00:16:44.067Z,6.10
2017-11-29T00:19:11.456Z,6.06
2017-11-29T00:21:38.857Z,6.05
2017-11-29T00:24:06.255Z,6.04
2017-11-29T00:26:33.644Z,6.02
2017-11-29T00:29:01.037Z,6.07
2017-11-29T00:31:28.434Z,6.05
2017-11-29T00:33:55.807Z,6.04
2017-11-29T00:36:23.219Z,6.04
2017-11-29T00:38:50.623Z,6.03
2017-11-29T00:41:18.028Z,6.01
2017-11-29T00:43:45.420Z,6.03
2017-11-29T00:46:13.003Z,5.99
2017-11-29T00:48:40.400Z,5.99
2017-11-29T00:51:07.796Z,5.99
2017-11-29T00:53:35.188Z,5.98
2017-11-29T00:56:02.588Z,5.98
2017-11-29T00:58:29.990Z,5.97
2017-11-29T01:00:57.385Z,5.95
2017-11-29T01:03:24.777Z,5.93
2017-11-29T01:05:52.183Z,5.94
2017-11-29T01:08:19.584Z,5.93
2017-11-29T01:10:46.987Z,5.93
2017-11-29T01:13:14.391Z,5.89
2017-11-29T01:15:41.787Z,5.86
2017-11-29T01:18:09.177Z,5.87
2017-11-29T01:20:36.564Z,5.89
2017-11-29T01:23:03.959Z,5.89
2017-11-29T01:25:31.370Z,5.87
2017-11-29T01:27:58.760Z,5.92
2017-11-29T01:30:26.146Z,5.87
2017-11-29T01:32:53.548Z,5.90
2017-11-29T01:35:20.944Z,5.85
2017-11-29T01:37:48.331Z,5.82
2017-11-29T01:40:15.719Z,5.89
2017-11-29T01:42:43.109Z,5.88
2017-11-29T01:45:10.539Z,5.83
2017-11-29T01:47:37.952Z,5.79
2017-11-29T01:50:05.358Z,5.80
2017-11-29T01:52:32.752Z,5.82
2017-11-29T01:55:00.133Z,5.79
2017-11-29T01:57:27.551Z,5.79
2017-11-29T01:59:54.958Z,5.81
2017-11-29T02:02:22.347Z,5.80
2017-11-29T02:04:49.763Z,5.83
2017-11-29T02:07:17.200Z,5.85
2017-11-29T02:09:44.608Z,5.83
2017-11-29T02:12:11.987Z,5.83
2017-11-29T02:14:39.386Z,5.86
2017-11-29T02:17:06.771Z,5.83
2017-11-29T02:19:34.160Z,5.79
2017-11-29T02:22:01.567Z,5.81
2017-11-29T02:24:28.978Z,5.78
2017-11-29T02:26:56.363Z,5.78
2017-11-29T02:29:23.764Z,5.81
2017-11-29T02:31:51.171Z,5.84
2017-11-29T02:34:18.568Z,5.80
2017-11-29T02:36:45.967Z,5.79
2017-11-29T02:39:13.370Z,5.76
2017-11-29T02:44:39.680Z,5.79
2017-11-29T02:47:07.094Z,5.80
2017-11-29T02:49:34.494Z,5.77
2017-11-29T02:52:01.894Z,5.82
2017-11-29T02:54:29.295Z,5.77
2017-11-29T02:56:56.725Z,5.80
2017-11-29T02:59:24.124Z,5.83
2017-11-29T03:01:51.521Z,5.84
2017-11-29T03:04:18.946Z,5.81
2017-11-29T03:06:46.333Z,5.87
2017-11-29T03:09:13.719Z,5.81
2017-11-29T03:11:41.116Z,5.82
2017-11-29T03:14:08.501Z,5.79
2017-11-29T03:16:35.918Z,5.78
2017-11-29T03:19:03.304Z,5.81
2017-11-29T03:21:30.739Z,5.86
2017-11-29T03:23:58.124Z,5.82
2017-11-29T03:26:25.528Z,5.85
2017-11-29T03:28:52.917Z,5.84
2017-11-29T03:31:20.305Z,5.83
2017-11-29T03:33:47.707Z,5.84
2017-11-29T03:36:15.102Z,5.83
2017-11-29T03:38:42.514Z,5.83
2017-11-29T03:41:09.916Z,5.84
2017-11-29T03:43:37.324Z,5.82
2017-11-29T03:46:04.720Z,5.83
2017-11-29T03:48:32.126Z,5.81
2017-11-29T03:50:59.519Z,5.82
2017-11-29T03:53:26.922Z,5.83
2017-11-29T03:55:54.313Z,5.83
2017-11-29T03:58:21.739Z,5.81
2017-11-29T04:00:49.136Z,5.79
2017-11-29T04:03:16.551Z,5.79
2017-11-29T04:05:43.935Z,5.81
2017-11-29T04:08:11.328Z,5.80
2017-11-29T04:10:38.736Z,5.77
2017-11-29T04:13:06.127Z,5.74
2017-11-29T04:15:33.520Z,5.71
2017-11-29T04:18:00.916Z,5.71
2017-11-29T04:20:28.338Z,5.67
2017-11-29T04:22:55.762Z,5.66
2017-11-29T04:25:23.158Z,5.62
2017-11-29T04:27:50.534Z,5.63
2017-11-29T04:30:17.979Z,5.61
2017-11-29T04:32:45.357Z,5.60
2017-11-29T04:35:12.764Z,5.57
2017-11-29T04:37:40.179Z,5.53
2017-11-29T04:40:07.561Z,5.51
2017-11-29T04:42:34.956Z,5.48
2017-11-29T04:45:02.352Z,5.51
2017-11-29T04:47:29.793Z,5.53
2017-11-29T04:49:57.184Z,5.56
2017-11-29T04:52:24.643Z,5.59
2017-11-29T04:54:52.044Z,5.59
2017-11-29T04:57:19.433Z,5.62
2017-11-29T04:59:46.849Z,5.64
2017-11-29T05:02:14.978Z,5.69
2017-11-29T05:04:42.377Z,5.73
2017-11-29T05:07:09.780Z,5.73
2017-11-29T05:09:37.172Z,5.72
2017-11-29T05:12:04.575Z,5.76
2017-11-29T05:14:31.976Z,5.75
2017-11-29T05:16:59.403Z,5.74
2017-11-29T05:19:26.800Z,5.72
2017-11-29T05:21:54.188Z,5.67
2017-11-29T05:24:21.592Z,5.61
2017-11-29T05:26:48.982Z,5.55
2017-11-29T05:29:16.416Z,5.49
2017-11-29T05:31:43.828Z,5.43
2017-11-29T05:34:11.210Z,5.43
2017-11-29T05:36:38.610Z,5.32
2017-11-29T05:39:05.995Z,5.30
2017-11-29T05:41:33.404Z,5.28
2017-11-29T05:44:00.808Z,5.29
2017-11-29T05:46:28.213Z,5.30
2017-11-29T05:48:55.670Z,5.27
2017-11-29T05:51:23.080Z,5.24
2017-11-29T05:53:50.469Z,5.23
2017-11-29T05:56:17.884Z,5.18
2017-11-29T05:58:45.276Z,5.15
2017-11-29T06:01:12.693Z,5.13
2017-11-29T06:03:40.077Z,5.10
2017-11-29T06:06:07.480Z,5.07
2017-11-29T06:08:34.891Z,5.03
2017-11-29T06:11:02.292Z,4.98
2017-11-29T06:13:29.703Z,4.95
2017-11-29T06:15:57.114Z,4.94
2017-11-29T06:18:24.505Z,4.93
2017-11-29T06:20:51.923Z,4.91
2017-11-29T06:23:19.327Z,4.88
2017-11-29T06:25:46.740Z,4.86
2017-11-29T06:28:14.150Z,4.84
2017-11-29T06:30:41.536Z,4.84
2017-11-29T06:33:08.948Z,4.86
2017-11-29T06:35:36.355Z,4.88
2017-11-29T06:38:03.777Z,4.88
2017-11-29T06:40:31.187Z,4.98
2017-11-29T06:42:58.601Z,4.98
2017-11-29T06:45:25.993Z,4.95
2017-11-29T06:47:53.411Z,4.95
2017-11-29T06:50:20.849Z,4.94
2017-11-29T06:52:48.277Z,4.91
2017-11-29T06:55:15.683Z,4.89
2017-11-29T06:57:43.129Z,4.89
2017-11-29T07:00:10.503Z,4.94
2017-11-29T07:02:37.913Z,4.93
2017-11-29T07:05:05.324Z,4.94
2017-11-29T07:07:32.703Z,4.93
2017-11-29T07:10:00.096Z,4.93
2017-11-29T07:12:27.510Z,4.92
2017-11-29T07:14:54.912Z,4.99
2017-11-29T07:17:22.316Z,5.03
2017-11-29T07:19:49.730Z,4.98
2017-11-29T07:22:17.153Z,4.94
2017-11-29T07:24:44.546Z,4.91
2017-11-29T07:27:11.995Z,4.90
2017-11-29T07:29:39.384Z,4.91
2017-11-29T07:32:06.834Z,4.91
2017-11-29T07:34:34.269Z,4.89
2017-11-29T07:37:01.646Z,4.87
2017-11-29T07:39:29.065Z,4.87
2017-11-29T07:41:56.497Z,4.88
2017-11-29T07:44:23.892Z,4.88
2017-11-29T07:46:51.292Z,4.92
2017-11-29T07:49:18.685Z,4.97
2017-11-29T07:51:46.113Z,4.95
2017-11-29T07:54:13.507Z,4.95
2017-11-29T07:56:40.919Z,4.94
2017-11-29T07:59:08.348Z,4.96
2017-11-29T08:01:35.771Z,4.91
2017-11-29T08:04:03.197Z,4.87
2017-11-29T08:06:30.572Z,4.83
2017-11-29T08:08:57.977Z,4.82
2017-11-29T08:11:25.441Z,4.78
2017-11-29T08:13:52.852Z,4.73
2017-11-29T08:16:20.256Z,4.71
2017-11-29T08:18:47.663Z,4.68
2017-11-29T08:21:15.077Z,4.66
2017-11-29T08:23:42.496Z,4.64
2017-11-29T08:26:09.872Z,4.65
2017-11-29T08:28:37.306Z,4.67
2017-11-29T08:31:04.705Z,4.69
2017-11-29T08:33:32.108Z,4.73
2017-11-29T08:35:59.540Z,4.78
2017-11-29T08:38:26.936Z,4.90
2017-11-29T08:40:54.351Z,4.92
2017-11-29T08:43:21.764Z,4.94
2017-11-29T08:45:49.156Z,4.99
2017-11-29T08:48:16.583Z,4.99
2017-11-29T08:50:43.991Z,5.00
2017-11-29T08:53:11.415Z,5.03
2017-11-29T08:55:38.853Z,5.04
2017-11-29T08:58:06.249Z,5.07
2017-11-29T09:00:33.655Z,5.11
2017-11-29T09:03:01.072Z,5.12
2017-11-29T09:05:28.464Z,5.12
2017-11-29T09:07:55.862Z,5.13
2017-11-29T09:10:23.285Z,5.18
2017-11-29T09:12:50.716Z,5.20
2017-11-29T09:15:18.122Z,5.24
2017-11-29T09:17:45.527Z,5.26
2017-11-29T09:20:12.944Z,5.28
2017-11-29T09:22:40.344Z,5.35
2017-11-29T09:25:07.744Z,5.39
2017-11-29T09:27:35.160Z,5.48
2017-11-29T09:30:02.592Z,5.55
2017-11-29T09:32:30.004Z,5.63
2017-11-29T09:34:57.407Z,5.70
2017-11-29T09:37:24.792Z,5.85
2017-11-29T09:39:52.181Z,6.06
2017-11-29T09:42:19.604Z,6.26
2017-11-29T09:44:47.016Z,6.40
2017-11-29T09:47:14.411Z,6.77
2017-11-29T09:49:41.786Z,7.11
2017-11-29T09:52:09.197Z,7.39
2017-11-29T09:54:36.599Z,7.59
2017-11-29T09:57:03.987Z,7.76
2017-11-29T09:59:31.395Z,7.42
2017-11-29T10:01:58.798Z,7.55
2017-11-29T10:04:26.181Z,7.68
2017-11-29T10:06:53.601Z,7.69
2017-11-29T10:09:21.024Z,7.76
2017-11-29T10:11:48.432Z,7.63
2017-11-29T10:14:15.840Z,7.41
2017-11-29T10:16:43.247Z,7.42
2017-11-29T10:19:10.661Z,7.60
2017-11-29T10:21:38.058Z,8.00
2017-11-29T10:24:05.436Z,8.04
2017-11-29T10:26:32.838Z,8.13
2017-11-29T10:29:00.236Z,8.51
2017-11-29T10:31:27.635Z,9.12
2017-11-29T10:33:55.035Z,9.58
2017-11-29T10:36:22.447Z,10.09
2017-11-29T10:38:49.844Z,10.49
2017-11-29T10:41:17.238Z,10.72
2017-11-29T10:43:44.676Z,10.72
2017-11-29T10:46:12.052Z,10.77
2017-11-29T10:48:39.464Z,10.90
2017-11-29T10:51:06.857Z,10.98
2017-11-29T10:53:34.304Z,10.68
2017-11-29T10:56:01.736Z,10.67
2017-11-29T10:58:29.116Z,10.69
2017-11-29T11:00:56.523Z,10.59
2017-11-29T11:03:23.952Z,10.71
2017-11-29T11:05:51.357Z,10.67
2017-11-29T11:08:18.769Z,10.49
2017-11-29T11:10:46.170Z,10.14
2017-11-29T11:13:13.848Z,9.87
2017-11-29T11:15:41.254Z,9.56
2017-11-29T11:18:08.685Z,9.38
2017-11-29T11:20:36.072Z,9.58
2017-11-29T11:23:03.468Z,9.72
2017-11-29T11:25:31.395Z,9.91
2017-11-29T11:27:58.815Z,9.69
2017-11-29T11:30:26.211Z,9.44
2017-11-29T11:32:53.657Z,9.16
2017-11-29T11:35:21.052Z,8.92
2017-11-29T11:37:48.445Z,8.68
2017-11-29T11:40:15.864Z,8.55
2017-11-29T11:42:43.260Z,8.37
2017-11-29T11:45:10.677Z,8.23
2017-11-29T11:47:38.121Z,8.05
2017-11-29T11:50:05.506Z,7.87
2017-11-29T11:52:32.904Z,7.71
2017-11-29T11:55:00.302Z,7.62
2017-11-29T11:57:27.725Z,7.51
2017-11-29T11:59:55.111Z,7.45
2017-11-29T12:02:22.555Z,7.61
2017-11-29T12:04:49.936Z,7.97
2017-11-29T12:07:17.347Z,8.22
2017-11-29T12:09:44.739Z,8.44
2017-11-29T12:12:12.161Z,8.54
2017-11-29T12:14:39.567Z,8.63
2017-11-29T12:17:06.960Z,8.77
2017-11-29T12:19:34.352Z,8.94
2017-11-29T12:22:01.794Z,9.11
2017-11-29T12:24:29.228Z,9.24
2017-11-29T12:26:56.629Z,9.44
2017-11-29T12:29:24.017Z,9.65
2017-11-29T12:31:51.421Z,9.94
2017-11-29T12:34:18.828Z,10.04
2017-11-29T12:36:46.231Z,10.19
2017-11-29T12:39:13.639Z,10.29
2017-11-29T12:41:41.044Z,10.35
2017-11-29T12:44:08.444Z,10.21
2017-11-29T12:46:36.347Z,9.83
2017-11-29T12:49:15.497Z,9.45
2017-11-29T12:51:42.918Z,9.04
2017-11-29T12:54:10.320Z,8.74
2017-11-29T12:56:37.730Z,8.51
2017-11-29T12:59:05.129Z,8.46
2017-11-29T13:01:32.529Z,8.74
2017-11-29T13:03:59.949Z,9.02
2017-11-29T13:06:27.331Z,9.26
2017-11-29T13:08:54.786Z,9.48
2017-11-29T13:11:22.181Z,9.67
2017-11-29T13:13:49.606Z,9.72
2017-11-29T13:16:16.998Z,9.73
2017-11-29T13:18:44.388Z,9.51
2017-11-29T13:21:11.789Z,9.18
2017-11-29T13:23:39.259Z,8.98
2017-11-29T13:26:06.647Z,9.00
2017-11-29T13:28:34.035Z,8.87
2017-11-29T13:31:01.485Z,8.70
2017-11-29T13:33:28.887Z,8.52
2017-11-29T13:35:56.284Z,8.48
2017-11-29T13:38:23.671Z,8.54
2017-11-29T13:40:51.056Z,8.70
2017-11-29T13:43:18.444Z,8.75
2017-11-29T13:45:45.840Z,8.64
2017-11-29T13:48:13.228Z,8.47
2017-11-29T13:50:40.606Z,8.33
2017-11-29T13:53:08.008Z,8.11
2017-11-29T13:55:35.396Z,7.90
2017-11-29T13:58:02.795Z,7.69
2017-11-29T14:00:30.209Z,7.52
2017-11-29T14:02:57.588Z,7.39
2017-11-29T14:05:24.984Z,7.25
2017-11-29T14:07:52.372Z,7.11
2017-11-29T14:10:19.768Z,7.01
2017-11-29T14:12:49.160Z,6.91
2017-11-29T14:15:16.551Z,6.79
2017-11-29T14:17:43.944Z,6.75
2017-11-29T14:20:11.362Z,6.70
2017-11-29T14:22:38.752Z,6.68
2017-11-29T14:25:06.148Z,6.73
2017-11-29T14:27:33.546Z,6.80
2017-11-29T14:30:00.936Z,6.92
2017-11-29T14:32:28.332Z,7.01
2017-11-29T14:34:55.716Z,7.10
2017-11-29T14:37:23.106Z,7.11
2017-11-29T14:39:50.499Z,7.04
2017-11-29T14:42:17.896Z,6.95
2017-11-29T14:44:45.284Z,6.87
2017-11-29T14:47:12.677Z,6.77
2017-11-29T14:49:40.071Z,6.71
2017-11-29T14:52:07.476Z,6.64
2017-11-29T14:54:34.875Z,6.58
2017-11-29T14:57:02.264Z,6.54
2017-11-29T14:59:29.669Z,6.64
2017-11-29T15:01:57.053Z,6.68
2017-11-29T15:04:24.437Z,6.74
2017-11-29T15:06:51.839Z,6.75
2017-11-29T15:09:19.228Z,6.76
2017-11-29T15:11:46.615Z,6.79
2017-11-29T15:14:14.009Z,6.81
2017-11-29T15:16:41.401Z,6.82
2017-11-29T15:19:08.792Z,6.82
2017-11-29T15:21:36.182Z,6.80
2017-11-29T15:24:03.587Z,6.83
2017-11-29T15:26:30.974Z,6.75
2017-11-29T15:28:58.363Z,6.79
2017-11-29T15:31:25.751Z,6.76
2017-11-29T15:33:53.144Z,6.73
2017-11-29T15:36:20.540Z,6.72
2017-11-29T15:38:47.937Z,6.66
2017-11-29T15:41:15.371Z,6.66
2017-11-29T15:43:42.749Z,6.65
2017-11-29T15:46:10.160Z,6.64
2017-11-29T15:48:37.552Z,6.53
2017-11-29T15:51:04.944Z,6.46
2017-11-29T15:53:32.340Z,6.40
2017-11-29T15:55:59.750Z,6.30
2017-11-29T15:58:27.227Z,6.13
2017-11-29T16:00:54.605Z,5.97
2017-11-29T16:03:22.011Z,5.88
2017-11-29T16:05:49.404Z,5.82
2017-11-29T16:08:16.811Z,5.83
2017-11-29T16:10:44.218Z,5.76
2017-11-29T16:13:11.620Z,5.71
2017-11-29T16:15:39.002Z,5.72
2017-11-29T16:18:06.420Z,5.71
2017-11-29T16:20:33.835Z,5.61
2017-11-29T16:23:01.228Z,5.54
2017-11-29T16:25:28.624Z,5.58
2017-11-29T16:27:56.032Z,5.59
2017-11-29T16:30:23.436Z,5.54
2017-11-29T16:32:50.845Z,5.54
2017-11-29T16:35:18.254Z,5.57
2017-11-29T16:37:45.661Z,5.57
2017-11-29T16:40:13.064Z,5.64
2017-11-29T16:42:40.448Z,5.59
2017-11-29T16:45:07.866Z,5.56
2017-11-29T16:47:35.267Z,5.56
2017-11-29T16:50:02.665Z,5.46
2017-11-29T16:52:30.057Z,5.43
2017-11-29T16:54:57.451Z,5.44
2017-11-29T16:57:24.854Z,5.45
2017-11-29T16:59:52.250Z,5.47
2017-11-29T17:02:19.642Z,5.43
2017-11-29T17:04:47.034Z,5.43
2017-11-29T17:07:14.441Z,5.42
2017-11-29T17:09:41.829Z,5.44
2017-11-29T17:12:09.236Z,5.28
2017-11-29T17:14:40.191Z,5.25
2017-11-29T17:17:07.599Z,5.25
2017-11-29T17:19:34.988Z,5.33
2017-11-29T17:22:02.397Z,5.37
2017-11-29T17:24:29.791Z,5.37
2017-11-29T17:26:57.187Z,5.40
2017-11-29T17:29:24.583Z,5.39
2017-11-29T17:31:51.981Z,5.33
2017-11-29T17:34:19.367Z,5.33
2017-11-29T17:36:46.760Z,5.35
2017-11-29T17:39:14.152Z,5.31
2017-11-29T17:41:41.555Z,5.33
2017-11-29T17:44:08.964Z,5.31
2017-11-29T17:46:37.224Z,5.26
2017-11-29T17:49:04.615Z,5.22
2017-11-29T17:51:32.016Z,5.16
2017-11-29T17:53:59.404Z,5.10
2017-11-29T17:56:26.827Z,5.08
2017-11-29T17:58:54.219Z,5.05
2017-11-29T18:01:21.604Z,5.05
2017-11-29T18:03:48.995Z,5.04
2017-11-29T18:06:16.391Z,5.06
2017-11-29T18:08:43.825Z,5.03
2017-11-29T18:11:11.177Z,5.03
2017-11-29T18:13:38.576Z,5.03
2017-11-29T18:16:05.974Z,5.02
2017-11-29T18:18:33.365Z,5.03
2017-11-29T18:21:00.752Z,5.04
2017-11-29T18:23:28.149Z,5.03
2017-11-29T18:25:55.533Z,5.05
2017-11-29T18:28:22.943Z,5.10
2017-11-29T18:30:50.350Z,5.11
2017-11-29T18:33:17.744Z,5.14
2017-11-29T18:35:45.136Z,5.07
2017-11-29T18:38:12.527Z,5.07
2017-11-29T18:40:39.937Z,5.16
2017-11-29T18:43:07.363Z,5.18
2017-11-29T18:45:34.751Z,5.18
2017-11-29T18:48:02.146Z,5.19
2017-11-29T18:50:29.531Z,5.21
2017-11-29T18:52:56.934Z,5.22
2017-11-29T18:55:24.331Z,5.22
2017-11-29T18:57:51.739Z,5.20
2017-11-29T19:00:19.128Z,5.23
2017-11-29T19:02:46.522Z,5.25
2017-11-29T19:05:13.912Z,5.23
2017-11-29T19:07:41.328Z,5.21
2017-11-29T19:10:08.721Z,5.19
2017-11-29T19:12:36.107Z,5.17
2017-11-29T19:15:03.508Z,5.12
2017-11-29T19:17:30.902Z,5.06
2017-11-29T19:19:58.321Z,5.03
2017-11-29T19:22:25.719Z,4.99
2017-11-29T19:24:53.119Z,4.98
2017-11-29T19:27:20.505Z,4.97
2017-11-29T19:29:47.907Z,4.97
2017-11-29T19:32:15.291Z,4.98
2017-11-29T19:34:42.680Z,4.98
2017-11-29T19:37:10.079Z,4.98
2017-11-29T19:39:37.471Z,4.96
2017-11-29T19:42:04.870Z,4.93
2017-11-29T19:44:36.133Z,4.91
2017-11-29T19:47:03.545Z,4.88
2017-11-29T19:49:30.943Z,4.81
2017-11-29T19:51:58.433Z,4.79
2017-11-29T19:54:25.820Z,4.80
2017-11-29T19:56:53.216Z,4.74
2017-11-29T19:59:20.636Z,4.70
2017-11-29T20:01:49.972Z,4.69
2017-11-29T20:04:17.378Z,4.70
2017-11-29T20:06:44.841Z,4.71
2017-11-29T20:09:12.297Z,4.71
2017-11-29T20:11:39.706Z,4.70
2017-11-29T20:14:07.115Z,4.67
2017-11-29T20:16:35.032Z,4.67
2017-11-29T20:19:03.338Z,4.66
2017-11-29T20:21:30.736Z,4.67
2017-11-29T20:23:58.246Z,4.62
2017-11-29T20:26:26.576Z,4.41
2017-11-29T20:28:54.991Z,4.31
2017-11-29T20:31:22.399Z,4.24
2017-11-29T20:33:50.591Z,4.10
2017-11-29T20:36:18.001Z,4.09
2017-11-29T20:38:45.401Z,4.07
2017-11-29T20:41:12.800Z,4.06
2017-11-29T20:43:40.263Z,3.98
2017-11-29T20:46:07.680Z,3.92
2017-11-29T20:48:35.081Z,3.86
2017-11-29T20:51:02.484Z,3.79
2017-11-29T20:53:29.893Z,3.70
2017-11-29T20:55:57.288Z,3.65
2017-11-29T20:58:24.684Z,3.60
2017-11-29T21:00:52.084Z,3.55
2017-11-29T21:03:19.504Z,3.48
2017-11-29T21:05:46.912Z,3.40
2017-11-29T21:08:21.840Z,3.31
2017-11-29T21:10:49.236Z,3.25
2017-11-29T21:13:16.628Z,3.18
2017-11-29T21:15:44.032Z,3.10
2017-11-29T21:18:11.437Z,3.07
2017-11-29T21:20:38.837Z,3.01
2017-11-29T21:23:06.232Z,3.03
2017-11-29T21:25:33.643Z,3.01
2017-11-29T21:28:01.036Z,2.96
2017-11-29T21:30:28.428Z,2.90
2017-11-29T21:32:55.836Z,2.85
2017-11-29T21:35:23.239Z,2.83
2017-11-29T21:37:50.627Z,2.78
2017-11-29T21:40:18.019Z,2.75
2017-11-29T21:42:45.416Z,2.76
2017-11-29T21:45:12.821Z,2.71
2017-11-29T21:47:40.208Z,2.53
2017-11-29T21:50:07.612Z,2.46
2017-11-29T21:52:35.004Z,2.49
2017-11-29T21:55:02.410Z,2.52
2017-11-29T21:57:29.800Z,2.47
2017-11-29T21:59:57.200Z,2.43
2017-11-29T22:02:24.601Z,2.42
2017-11-29T22:04:51.997Z,2.44
2017-11-29T22:07:19.400Z,2.50
2017-11-29T22:09:46.792Z,2.52
2017-11-29T22:12:14.575Z,2.52
2017-11-29T22:14:41.980Z,2.52
2017-11-29T22:17:09.375Z,2.52
2017-11-29T22:19:36.779Z,2.51
2017-11-29T22:22:04.177Z,2.46
2017-11-29T22:24:31.571Z,2.48
2017-11-29T22:26:58.967Z,2.49
2017-11-29T22:29:26.364Z,2.54
2017-11-29T22:31:53.752Z,2.61
2017-11-29T22:34:21.204Z,2.66
2017-11-29T22:36:48.563Z,2.66
2017-11-29T22:39:15.965Z,2.83
2017-11-29T22:41:43.372Z,2.97
2017-11-29T22:44:10.761Z,3.07
2017-11-29T22:46:38.156Z,3.15
2017-11-29T22:49:05.556Z,3.19
2017-11-29T22:51:32.964Z,3.17
2017-11-29T22:54:00.365Z,3.14
2017-11-29T22:56:27.780Z,3.18
2017-11-29T22:58:55.180Z,3.23
2017-11-29T23:01:22.577Z,3.24
2017-11-29T23:03:49.973Z,3.29
2017-11-29T23:06:17.376Z,3.36
2017-11-29T23:08:44.772Z,3.41
2017-11-29T23:11:12.167Z,3.44
2017-11-29T23:13:39.563Z,3.48
2017-11-29T23:16:06.963Z,3.56
2017-11-29T23:18:34.380Z,3.53
2017-11-29T23:21:01.780Z,3.56
2017-11-29T23:23:29.179Z,3.44
2017-11-29T23:25:56.594Z,3.41
2017-11-29T23:28:23.989Z,3.45
2017-11-29T23:30:51.393Z,3.43
2017-11-29T23:33:18.791Z,3.40
2017-11-29T23:35:46.208Z,3.43
2017-11-29T23:38:13.595Z,3.44
2017-11-29T23:40:41.021Z,3.47
2017-11-29T23:43:08.412Z,3.54
2017-11-29T23:45:35.803Z,3.59
2017-11-29T23:48:03.219Z,3.64
2017-11-29T23:50:30.617Z,3.69
2017-11-29T23:52:58.028Z,3.69
2017-11-29T23:55:25.416Z,3.73
2017-11-29T23:57:52.824Z,3.79
